Time;durP1;ratioP1;P1;durP2;ratioP2;P2;SDS_P1;SDS_P2;PMS_P1;PMS_P2;Temp;Humidity;BMP_temperature;BMP_pressure;BME280_temperature;BME280_humidity;BME280_pressure;Samples;Min_cycle;Max_cycle;Signal;HPM_P1;HPM_P2
2022/10/12 00:01:18;;;;;;;27.52;8.40;;;;;;;;;;5012588;28;20064;-74
2022/10/12 00:03:43;;;;;;;20.70;8.35;;;;;;;;;;5030636;28;20680;-74
2022/10/12 00:06:15;;;;;;;20.48;8.13;;;;;;;;;;5011917;28;20053;-74
2022/10/12 00:08:41;;;;;;;28.42;8.45;;;;;;;;;;5029939;28;20095;-74
2022/10/12 00:11:13;;;;;;;22.35;8.27;;;;;;;;;;5011718;28;20063;-74
2022/10/12 00:13:38;;;;;;;19.55;7.75;;;;;;;;;;5012157;28;20033;-74
2022/10/12 00:16:06;;;;;;;17.55;7.32;;;;;;;;;;5012136;28;20025;-74
2022/10/12 00:18:33;;;;;;;23.77;8.48;;;;;;;;;;5012611;28;20056;-74
2022/10/12 00:21:04;;;;;;;20.38;7.78;;;;;;;;;;5011722;28;20061;-75
2022/10/12 00:23:30;;;;;;;18.75;7.85;;;;;;;;;;5011896;28;20124;-74
2022/10/12 00:25:59;;;;;;;27.15;9.27;;;;;;;;;;4996863;28;20391;-74
2022/10/12 00:28:25;;;;;;;21.25;7.82;;;;;;;;;;4992204;28;20026;-74
2022/10/12 00:30:50;;;;;;;24.52;8.13;;;;;;;;;;5010054;28;20056;-74
2022/10/12 00:33:16;;;;;;;23.73;9.23;;;;;;;;;;4991787;28;20488;-74
2022/10/12 00:35:41;;;;;;;22.58;8.88;;;;;;;;;;4991929;28;20052;-74
2022/10/12 00:38:07;;;;;;;19.27;8.52;;;;;;;;;;5009846;28;20030;-74
2022/10/12 00:40:32;;;;;;;28.23;9.40;;;;;;;;;;4992197;28;20022;-74
2022/10/12 00:42:57;;;;;;;25.27;9.98;;;;;;;;;;5009925;28;20586;-75
2022/10/12 00:45:25;;;;;;;26.38;9.25;;;;;;;;;;4991998;28;20022;-74
2022/10/12 00:47:54;;;;;;;20.98;8.88;;;;;;;;;;5009829;28;20058;-75
2022/10/12 00:50:28;;;;;;;21.67;10.10;;;;;;;;;;4991608;28;20485;-75
2022/10/12 00:53:03;;;;;;;27.02;10.60;;;;;;;;;;4992584;28;20112;-76
2022/10/12 00:55:34;;;;;;;26.45;10.35;;;;;;;;;;4976409;28;20124;-73
2022/10/12 00:58:00;;;;;;;21.95;8.88;;;;;;;;;;5009367;28;20201;-75
2022/10/12 01:00:26;;;;;;;21.15;10.48;;;;;;;;;;5009593;28;20136;-73
2022/10/12 01:02:52;;;;;;;20.60;8.90;;;;;;;;;;5009649;28;20029;-74
2022/10/12 01:05:19;;;;;;;24.48;9.45;;;;;;;;;;4991660;28;20026;-73
2022/10/12 01:07:44;;;;;;;23.73;9.95;;;;;;;;;;4992104;28;20033;-73
2022/10/12 01:10:11;;;;;;;28.55;8.90;;;;;;;;;;5009952;28;20415;-73
2022/10/12 01:12:39;;;;;;;25.48;8.68;;;;;;;;;;4991813;28;20022;-73
2022/10/12 01:15:05;;;;;;;19.25;8.55;;;;;;;;;;5008985;28;20097;-74
2022/10/12 01:17:37;;;;;;;23.45;8.57;;;;;;;;;;4991878;28;20034;-73
2022/10/12 01:20:37;;;;;;;21.70;7.55;;;;;;;;;;5008988;28;20096;-75
2022/10/12 01:23:05;;;;;;;18.60;8.13;;;;;;;;;;4991619;28;20478;-74
2022/10/12 01:25:56;;;;;;;18.60;7.20;;;;;;;;;;5020765;28;20033;-74
2022/10/12 01:28:49;;;;;;;18.08;6.95;;;;;;;;;;5008173;28;20086;-74
2022/10/12 01:31:48;;;;;;;23.48;7.88;;;;;;;;;;5027616;28;20074;-73
2022/10/12 01:34:24;;;;;;;20.98;7.97;;;;;;;;;;5010436;28;20029;-73
2022/10/12 01:36:57;;;;;;;23.88;8.70;;;;;;;;;;5029324;28;20041;-75
2022/10/12 01:39:47;;;;;;;22.60;8.07;;;;;;;;;;5028933;28;20534;-73
2022/10/12 01:42:18;;;;;;;18.38;7.78;;;;;;;;;;5010817;28;20022;-73
2022/10/12 01:44:44;;;;;;;19.90;7.60;;;;;;;;;;5010913;28;20437;-73
2022/10/12 01:47:09;;;;;;;27.50;8.30;;;;;;;;;;5011523;28;20037;-74
2022/10/12 01:49:36;;;;;;;27.45;8.70;;;;;;;;;;5011394;28;20466;-74
2022/10/12 01:52:23;;;;;;;27.55;9.43;;;;;;;;;;5010875;28;20108;-75
2022/10/12 01:55:12;;;;;;;20.17;8.43;;;;;;;;;;5027467;28;20041;-74
2022/10/12 01:58:05;;;;;;;17.88;7.05;;;;;;;;;;5000620;28;20037;-74
2022/10/12 02:00:40;;;;;;;25.45;7.63;;;;;;;;;;5011245;28;20033;-73
2022/10/12 02:03:20;;;;;;;17.50;7.15;;;;;;;;;;5029178;28;20090;-74
2022/10/12 02:05:49;;;;;;;21.02;7.22;;;;;;;;;;5013490;28;20029;-74
2022/10/12 02:08:34;;;;;;;18.35;7.22;;;;;;;;;;5014645;28;20025;-75
2022/10/12 02:11:10;;;;;;;15.65;6.57;;;;;;;;;;5032033;28;20026;-74
2022/10/12 02:13:47;;;;;;;15.98;7.80;;;;;;;;;;5014235;28;20047;-74
2022/10/12 02:16:25;;;;;;;20.02;7.00;;;;;;;;;;5011422;28;20056;-75
2022/10/12 02:18:53;;;;;;;18.50;7.45;;;;;;;;;;5031944;28;20032;-74
2022/10/12 02:21:23;;;;;;;25.00;7.60;;;;;;;;;;5013915;28;20029;-75
2022/10/12 02:23:51;;;;;;;16.70;6.35;;;;;;;;;;4994741;28;20029;-75
2022/10/12 02:26:17;;;;;;;20.98;13.88;;;;;;;;;;5012165;28;20038;-74
2022/10/12 02:28:44;;;;;;;15.68;8.15;;;;;;;;;;4994368;28;20029;-74
2022/10/12 02:31:45;;;;;;;19.73;7.63;;;;;;;;;;5012072;28;20038;-74
2022/10/12 02:34:22;;;;;;;17.30;8.90;;;;;;;;;;5011851;28;20457;-74
2022/10/12 02:36:47;;;;;;;20.42;8.50;;;;;;;;;;5011996;28;20029;-75
2022/10/12 02:39:28;;;;;;;18.05;8.23;;;;;;;;;;5011630;28;20029;-75
2022/10/12 02:41:58;;;;;;;19.02;8.80;;;;;;;;;;4994549;28;20025;-74
2022/10/12 02:44:29;;;;;;;17.60;9.13;;;;;;;;;;5012122;28;20493;-74
2022/10/12 02:46:57;;;;;;;23.55;9.48;;;;;;;;;;4994603;28;20041;-74
2022/10/12 02:49:27;;;;;;;20.75;8.50;;;;;;;;;;4994462;28;20018;-75
2022/10/12 02:51:54;;;;;;;20.15;8.93;;;;;;;;;;4992724;28;20050;-74
2022/10/12 02:54:20;;;;;;;21.30;8.73;;;;;;;;;;4999162;28;20414;-74
2022/10/12 02:56:46;;;;;;;17.02;8.60;;;;;;;;;;5013615;28;20040;-74
2022/10/12 02:59:13;;;;;;;23.35;9.70;;;;;;;;;;5029972;28;20446;-75
2022/10/12 03:01:39;;;;;;;24.33;9.65;;;;;;;;;;5031253;28;20127;-74
2022/10/12 03:04:04;;;;;;;21.05;9.48;;;;;;;;;;5029807;28;20116;-74
2022/10/12 03:06:30;;;;;;;24.42;8.88;;;;;;;;;;5013894;28;20025;-75
2022/10/12 03:08:56;;;;;;;32.10;9.30;;;;;;;;;;5031996;28;20077;-74
2022/10/12 03:11:22;;;;;;;24.90;9.35;;;;;;;;;;5013814;28;20541;-75
2022/10/12 03:13:52;;;;;;;22.35;8.43;;;;;;;;;;5013425;28;20409;-74
2022/10/12 03:16:17;;;;;;;37.15;10.02;;;;;;;;;;5030553;28;20112;-75
2022/10/12 03:18:43;;;;;;;21.15;9.68;;;;;;;;;;5012625;28;20120;-74
2022/10/12 03:21:09;;;;;;;22.23;9.30;;;;;;;;;;5012643;28;20049;-73
2022/10/12 03:23:35;;;;;;;29.83;10.13;;;;;;;;;;5030999;28;20502;-74
2022/10/12 03:26:00;;;;;;;22.63;8.55;;;;;;;;;;5015260;28;20025;-74
2022/10/12 03:28:26;;;;;;;20.20;8.98;;;;;;;;;;4992946;28;20021;-75
2022/10/12 03:30:52;;;;;;;23.08;8.13;;;;;;;;;;5011146;28;20080;-74
2022/10/12 03:33:17;;;;;;;22.00;9.40;;;;;;;;;;4993265;28;20029;-74
2022/10/12 03:35:44;;;;;;;19.05;8.27;;;;;;;;;;4993881;28;20038;-74
2022/10/12 03:38:09;;;;;;;23.83;8.52;;;;;;;;;;4993644;28;20022;-74
2022/10/12 03:40:36;;;;;;;24.88;8.75;;;;;;;;;;4993007;28;20053;-74
2022/10/12 03:43:01;;;;;;;21.17;8.52;;;;;;;;;;4993021;28;20075;-74
2022/10/12 03:45:27;;;;;;;24.23;8.98;;;;;;;;;;4993225;28;20387;-74
2022/10/12 03:47:52;;;;;;;23.50;8.07;;;;;;;;;;4993063;28;20033;-73
2022/10/12 03:50:18;;;;;;;23.83;7.45;;;;;;;;;;5010340;28;20383;-74
2022/10/12 03:52:43;;;;;;;25.42;8.82;;;;;;;;;;4992873;28;20025;-74
2022/10/12 03:55:09;;;;;;;17.77;7.15;;;;;;;;;;4992428;28;20030;-74
2022/10/12 03:57:34;;;;;;;26.60;8.40;;;;;;;;;;5010306;28;20025;-75
2022/10/12 04:00:00;;;;;;;22.35;8.02;;;;;;;;;;4993143;28;20037;-74
2022/10/12 04:02:25;;;;;;;20.38;8.13;;;;;;;;;;4992709;28;20120;-74
2022/10/12 04:04:51;;;;;;;20.40;8.00;;;;;;;;;;5010257;28;20034;-76
2022/10/12 04:07:16;;;;;;;22.17;8.02;;;;;;;;;;5009976;28;20101;-74
2022/10/12 04:09:41;;;;;;;22.30;7.63;;;;;;;;;;5010371;28;20084;-74
2022/10/12 04:12:07;;;;;;;21.17;7.95;;;;;;;;;;4992551;28;20501;-75
2022/10/12 04:14:32;;;;;;;22.70;8.30;;;;;;;;;;5010987;28;20070;-73
2022/10/12 04:16:58;;;;;;;25.60;8.00;;;;;;;;;;4993389;28;20026;-73
2022/10/12 04:19:24;;;;;;;23.40;7.78;;;;;;;;;;4992559;28;20030;-74
2022/10/12 04:21:49;;;;;;;24.85;7.97;;;;;;;;;;5009834;28;20034;-73
2022/10/12 04:24:15;;;;;;;24.55;8.02;;;;;;;;;;4992283;28;20029;-75
2022/10/12 04:26:40;;;;;;;21.40;7.90;;;;;;;;;;4992468;28;20034;-74
2022/10/12 04:29:05;;;;;;;17.85;8.80;;;;;;;;;;4991703;28;20044;-74
2022/10/12 04:31:31;;;;;;;13.07;6.20;;;;;;;;;;4992061;28;20030;-74
2022/10/12 04:33:56;;;;;;;17.95;6.65;;;;;;;;;;4992191;28;20089;-74
2022/10/12 04:36:23;;;;;;;22.65;8.05;;;;;;;;;;5009674;28;20417;-75
2022/10/12 04:38:49;;;;;;;26.02;12.30;;;;;;;;;;5009861;28;20048;-73
2022/10/12 04:41:15;;;;;;;16.73;5.68;;;;;;;;;;5009565;28;20528;-74
2022/10/12 04:43:40;;;;;;;20.95;6.35;;;;;;;;;;4992112;28;20057;-75
2022/10/12 04:46:06;;;;;;;17.05;6.03;;;;;;;;;;5009938;28;20037;-74
2022/10/12 04:48:31;;;;;;;16.17;5.93;;;;;;;;;;4992163;28;20026;-74
2022/10/12 04:50:57;;;;;;;22.85;7.10;;;;;;;;;;4992021;28;20555;-73
2022/10/12 04:53:23;;;;;;;14.43;7.53;;;;;;;;;;4991794;28;20395;-73
2022/10/12 04:55:48;;;;;;;16.60;6.70;;;;;;;;;;4991635;28;20109;-74
2022/10/12 04:58:14;;;;;;;21.00;6.00;;;;;;;;;;4991238;28;20182;-75
2022/10/12 05:00:39;;;;;;;19.40;7.47;;;;;;;;;;4991841;28;20057;-74
2022/10/12 05:03:05;;;;;;;18.02;7.20;;;;;;;;;;5009888;28;20486;-74
2022/10/12 05:05:31;;;;;;;22.80;6.03;;;;;;;;;;5009133;28;20488;-75
2022/10/12 05:07:56;;;;;;;26.70;7.53;;;;;;;;;;4992264;28;20485;-75
2022/10/12 05:10:22;;;;;;;21.85;6.70;;;;;;;;;;5000339;28;20224;-74
2022/10/12 05:12:48;;;;;;;19.33;6.35;;;;;;;;;;5003650;28;20032;-76
2022/10/12 05:15:14;;;;;;;16.40;7.72;;;;;;;;;;5030439;28;20365;-74
2022/10/12 05:17:39;;;;;;;24.33;7.07;;;;;;;;;;5030899;28;20389;-74
2022/10/12 05:20:05;;;;;;;23.50;8.10;;;;;;;;;;5023316;28;20026;-74
2022/10/12 05:22:31;;;;;;;17.90;5.97;;;;;;;;;;5025454;28;20049;-73
2022/10/12 05:24:56;;;;;;;12.23;6.20;;;;;;;;;;4975427;28;20022;-74
2022/10/12 05:27:22;;;;;;;16.73;7.15;;;;;;;;;;5008478;28;20085;-75
2022/10/12 05:29:47;;;;;;;19.70;7.85;;;;;;;;;;5000795;28;20113;-74
2022/10/12 05:32:13;;;;;;;23.58;6.43;;;;;;;;;;4997151;28;20036;-74
2022/10/12 05:34:38;;;;;;;14.43;6.22;;;;;;;;;;5007637;28;20409;-75
2022/10/12 05:37:05;;;;;;;20.48;8.07;;;;;;;;;;4994412;28;20029;-74
2022/10/12 05:39:31;;;;;;;18.30;7.07;;;;;;;;;;5013136;28;20105;-75
2022/10/12 05:41:57;;;;;;;16.67;7.20;;;;;;;;;;5001253;28;20124;-76
2022/10/12 05:44:25;;;;;;;18.25;6.38;;;;;;;;;;5013005;28;20519;-75
2022/10/12 05:46:52;;;;;;;16.55;7.18;;;;;;;;;;5002836;28;20033;-76
2022/10/12 05:49:18;;;;;;;13.48;6.35;;;;;;;;;;5005595;28;20114;-74
2022/10/12 05:51:43;;;;;;;29.98;8.52;;;;;;;;;;5019082;28;20049;-75
2022/10/12 05:54:09;;;;;;;18.30;9.30;;;;;;;;;;4997979;28;20028;-74
2022/10/12 05:56:34;;;;;;;27.35;8.05;;;;;;;;;;5004980;28;20021;-75
2022/10/12 05:59:00;;;;;;;22.52;7.88;;;;;;;;;;5002846;28;20375;-75
2022/10/12 06:01:25;;;;;;;23.10;7.35;;;;;;;;;;5018613;28;20128;-74
2022/10/12 06:03:53;;;;;;;30.73;7.72;;;;;;;;;;5003205;28;20026;-74
2022/10/12 06:06:18;;;;;;;18.23;7.15;;;;;;;;;;5004121;28;20018;-76
2022/10/12 06:08:44;;;;;;;20.63;8.43;;;;;;;;;;5013124;28;20504;-74
2022/10/12 06:11:10;;;;;;;18.75;7.03;;;;;;;;;;5009916;28;20152;-74
2022/10/12 06:13:35;;;;;;;20.20;7.45;;;;;;;;;;5006390;28;20045;-73
2022/10/12 06:16:01;;;;;;;17.27;7.20;;;;;;;;;;5010689;28;20120;-74
2022/10/12 06:18:26;;;;;;;30.15;8.15;;;;;;;;;;5001892;28;20057;-74
2022/10/12 06:20:55;;;;;;;24.25;7.68;;;;;;;;;;5001399;28;20190;-74
2022/10/12 06:23:21;;;;;;;25.73;10.02;;;;;;;;;;5024250;28;20034;-73
2022/10/12 06:25:48;;;;;;;21.83;8.25;;;;;;;;;;4996944;28;20034;-75
2022/10/12 06:28:15;;;;;;;24.27;7.63;;;;;;;;;;4985771;28;20436;-73
2022/10/12 06:30:42;;;;;;;22.75;7.95;;;;;;;;;;4997250;28;20116;-74
2022/10/12 06:33:07;;;;;;;27.35;7.80;;;;;;;;;;5003731;28;20649;-73
2022/10/12 06:35:33;;;;;;;22.15;8.32;;;;;;;;;;5015988;28;20024;-74
2022/10/12 06:37:59;;;;;;;26.05;8.85;;;;;;;;;;5003595;28;20368;-74
2022/10/12 06:40:26;;;;;;;24.63;8.35;;;;;;;;;;5014296;28;20083;-74
2022/10/12 06:42:53;;;;;;;23.67;8.77;;;;;;;;;;5003172;28;20040;-75
2022/10/12 06:45:18;;;;;;;18.98;7.57;;;;;;;;;;5004807;28;20485;-74
2022/10/12 06:47:45;;;;;;;23.08;9.30;;;;;;;;;;4989631;28;20087;-74
2022/10/12 06:50:11;;;;;;;16.58;8.32;;;;;;;;;;4991581;28;20080;-77
2022/10/12 06:52:39;;;;;;;21.52;9.52;;;;;;;;;;4996602;28;20735;-77
2022/10/12 06:55:05;;;;;;;19.80;9.15;;;;;;;;;;4995789;28;20640;-75
2022/10/12 06:57:31;;;;;;;29.10;7.65;;;;;;;;;;5012263;28;20116;-76
2022/10/12 06:59:57;;;;;;;25.52;10.25;;;;;;;;;;4996471;28;20038;-74
2022/10/12 07:02:23;;;;;;;32.45;10.88;;;;;;;;;;5000204;28;20057;-77
2022/10/12 07:04:52;;;;;;;18.45;8.13;;;;;;;;;;5016147;28;20092;-75
2022/10/12 07:07:18;;;;;;;17.67;7.88;;;;;;;;;;4993446;28;20041;-75
2022/10/12 07:09:44;;;;;;;19.02;8.68;;;;;;;;;;5013235;28;20044;-76
2022/10/12 07:12:10;;;;;;;28.52;7.80;;;;;;;;;;4978330;28;20033;-75
2022/10/12 07:14:35;;;;;;;26.15;8.25;;;;;;;;;;5014343;28;20025;-77
2022/10/12 07:17:01;;;;;;;16.60;7.25;;;;;;;;;;4991854;28;20633;-77
2022/10/12 07:19:30;;;;;;;19.38;8.93;;;;;;;;;;4995234;28;20029;-77
2022/10/12 07:21:58;;;;;;;20.90;7.95;;;;;;;;;;4995192;28;20544;-74
2022/10/12 07:24:34;;;;;;;23.23;9.15;;;;;;;;;;4998726;28;20029;-77
2022/10/12 07:27:06;;;;;;;25.63;8.02;;;;;;;;;;4997996;28;20032;-75
2022/10/12 07:29:33;;;;;;;23.95;8.45;;;;;;;;;;5002227;28;20021;-77
2022/10/12 07:31:59;;;;;;;21.00;9.00;;;;;;;;;;4994537;28;20037;-75
2022/10/12 07:34:27;;;;;;;19.90;8.30;;;;;;;;;;4992517;28;20041;-75
2022/10/12 07:36:55;;;;;;;23.98;8.48;;;;;;;;;;4994342;28;20043;-76
2022/10/12 07:39:21;;;;;;;21.40;9.23;;;;;;;;;;4997041;28;20034;-77
2022/10/12 07:41:51;;;;;;;17.08;8.57;;;;;;;;;;4998100;28;20034;-76
2022/10/12 07:44:19;;;;;;;20.50;9.32;;;;;;;;;;4980218;28;20038;-77
2022/10/12 07:46:47;;;;;;;25.42;8.43;;;;;;;;;;4995453;28;20038;-75
2022/10/12 07:49:13;;;;;;;31.50;9.18;;;;;;;;;;5015278;28;20041;-76
2022/10/12 07:51:40;;;;;;;15.68;6.75;;;;;;;;;;4993337;28;20057;-77
2022/10/12 07:54:06;;;;;;;19.02;8.63;;;;;;;;;;4977369;28;20088;-78
2022/10/12 07:56:34;;;;;;;23.52;8.00;;;;;;;;;;5010233;28;20037;-82
2022/10/12 07:59:00;;;;;;;26.90;9.10;;;;;;;;;;5009709;28;20069;-78
2022/10/12 08:01:29;;;;;;;22.58;8.38;;;;;;;;;;4999885;28;20025;-77
2022/10/12 08:03:56;;;;;;;20.25;8.32;;;;;;;;;;4971220;28;20045;-78
2022/10/12 08:06:24;;;;;;;20.90;8.90;;;;;;;;;;4993590;28;20038;-79
2022/10/12 08:08:50;;;;;;;20.25;9.05;;;;;;;;;;4992800;28;20084;-79
2022/10/12 08:11:17;;;;;;;26.13;10.52;;;;;;;;;;4995104;28;20026;-76
2022/10/12 08:13:44;;;;;;;24.15;9.27;;;;;;;;;;5014987;28;20560;-79
2022/10/12 08:16:13;;;;;;;22.05;9.25;;;;;;;;;;4994420;28;20048;-77
2022/10/12 08:18:39;;;;;;;20.25;9.52;;;;;;;;;;4994517;28;20073;-79
2022/10/12 08:21:06;;;;;;;19.50;8.75;;;;;;;;;;4994630;28;20501;-79
2022/10/12 08:23:34;;;;;;;22.83;10.38;;;;;;;;;;5013833;28;20040;-80
2022/10/12 08:26:00;;;;;;;40.63;18.75;;;;;;;;;;4997025;28;20025;-77
2022/10/12 08:28:25;;;;;;;20.92;10.60;;;;;;;;;;4987548;28;20022;-78
2022/10/12 08:30:52;;;;;;;26.08;9.98;;;;;;;;;;4996237;28;20103;-78
2022/10/12 08:33:19;;;;;;;31.38;10.80;;;;;;;;;;5015774;28;20037;-81
2022/10/12 08:35:47;;;;;;;23.65;9.73;;;;;;;;;;4992336;28;20086;-78
2022/10/12 08:38:13;;;;;;;27.88;9.50;;;;;;;;;;4995629;28;20051;-77
2022/10/12 08:41:10;;;;;;;17.45;9.02;;;;;;;;;;5011527;28;20034;-78
2022/10/12 08:43:57;;;;;;;31.80;11.68;;;;;;;;;;4991943;28;20045;-79
2022/10/12 08:46:24;;;;;;;21.85;10.43;;;;;;;;;;4992357;28;20038;-79
2022/10/12 08:49:03;;;;;;;24.02;9.95;;;;;;;;;;4994144;28;20068;-84
2022/10/12 08:51:32;;;;;;;31.55;10.05;;;;;;;;;;4997061;28;20049;-78
2022/10/12 08:54:12;;;;;;;21.17;9.77;;;;;;;;;;4998463;28;20037;-81
2022/10/12 08:56:40;;;;;;;20.92;9.82;;;;;;;;;;4993065;28;20038;-81
2022/10/12 08:59:12;;;;;;;31.33;10.73;;;;;;;;;;4998744;28;20029;-81
2022/10/12 09:02:08;;;;;;;20.65;10.30;;;;;;;;;;5000769;28;20116;-78
2022/10/12 09:04:43;;;;;;;19.33;10.50;;;;;;;;;;5015914;28;20081;-78
2022/10/12 09:07:14;;;;;;;21.13;9.40;;;;;;;;;;4994281;28;20042;-82
2022/10/12 09:10:04;;;;;;;32.67;10.73;;;;;;;;;;5010322;28;20105;-80
2022/10/12 09:13:03;;;;;;;15.85;8.90;;;;;;;;;;4993961;28;20030;-80
2022/10/12 09:15:38;;;;;;;21.98;10.40;;;;;;;;;;4996830;28;20075;-76
2022/10/12 09:18:35;;;;;;;37.33;16.00;;;;;;;;;;4997554;28;20033;-78
2022/10/12 09:21:05;;;;;;;17.10;9.93;;;;;;;;;;5013688;28;20149;-75
2022/10/12 09:23:38;;;;;;;23.52;9.80;;;;;;;;;;5015660;28;20057;-79
2022/10/12 09:26:12;;;;;;;23.52;9.63;;;;;;;;;;5015088;28;20060;-78
2022/10/12 09:28:44;;;;;;;28.92;10.65;;;;;;;;;;4998603;28;20022;-79
2022/10/12 09:31:09;;;;;;;23.75;11.00;;;;;;;;;;5003165;28;20025;-77
2022/10/12 09:33:56;;;;;;;26.25;9.80;;;;;;;;;;4997980;28;20037;-75
2022/10/12 09:36:24;;;;;;;21.98;10.48;;;;;;;;;;4998292;28;20025;-77
2022/10/12 09:38:51;;;;;;;22.27;9.07;;;;;;;;;;4996961;28;20056;-75
2022/10/12 09:41:32;;;;;;;23.70;8.27;;;;;;;;;;5017781;28;20065;-76
2022/10/12 09:44:01;;;;;;;23.52;8.50;;;;;;;;;;4999343;28;20026;-76
2022/10/12 09:46:48;;;;;;;15.10;8.48;;;;;;;;;;5015325;28;20052;-81
2022/10/12 09:49:14;;;;;;;21.15;8.65;;;;;;;;;;5000383;28;20152;-78
2022/10/12 09:51:40;;;;;;;19.63;8.75;;;;;;;;;;4996586;28;20207;-76
2022/10/12 09:54:06;;;;;;;23.80;8.85;;;;;;;;;;5017779;28;20117;-74
2022/10/12 09:56:43;;;;;;;20.77;8.18;;;;;;;;;;4997284;28;20440;-79
2022/10/12 09:59:35;;;;;;;20.23;8.02;;;;;;;;;;4996970;28;20022;-77
2022/10/12 10:02:14;;;;;;;20.42;7.68;;;;;;;;;;4993876;28;20044;-77
2022/10/12 10:04:47;;;;;;;21.90;10.23;;;;;;;;;;4994972;28;20081;-78
2022/10/12 10:07:19;;;;;;;19.63;8.20;;;;;;;;;;4998294;28;20057;-77
2022/10/12 10:09:47;;;;;;;26.38;7.90;;;;;;;;;;5013279;28;20632;-81
2022/10/12 10:12:26;;;;;;;19.10;7.82;;;;;;;;;;5000430;28;20051;-79
2022/10/12 10:14:55;;;;;;;22.20;7.68;;;;;;;;;;4997206;28;20513;-79
2022/10/12 10:17:35;;;;;;;21.30;8.80;;;;;;;;;;4995678;28;20033;-78
2022/10/12 10:20:04;;;;;;;20.42;7.18;;;;;;;;;;4998825;28;20040;-77
2022/10/12 10:22:31;;;;;;;18.83;8.30;;;;;;;;;;4985739;28;20040;-78
2022/10/12 10:24:59;;;;;;;14.45;6.53;;;;;;;;;;4983177;28;20034;-80
2022/10/12 10:27:37;;;;;;;19.20;7.90;;;;;;;;;;5014538;28;20057;-80
2022/10/12 10:30:09;;;;;;;27.10;14.38;;;;;;;;;;4988901;28;20115;-77
2022/10/12 10:32:36;;;;;;;24.25;8.95;;;;;;;;;;4997199;28;20418;-80
2022/10/12 10:35:12;;;;;;;21.20;8.05;;;;;;;;;;4995626;28;20029;-79
2022/10/12 10:37:45;;;;;;;19.63;8.55;;;;;;;;;;5012731;28;20030;-79
2022/10/12 10:40:25;;;;;;;23.55;7.65;;;;;;;;;;5001357;28;20029;-80
2022/10/12 10:42:55;;;;;;;19.13;6.93;;;;;;;;;;4994256;28;20099;-76
2022/10/12 10:45:28;;;;;;;14.48;6.25;;;;;;;;;;4996274;28;20033;-77
2022/10/12 10:48:00;;;;;;;16.98;7.22;;;;;;;;;;4992425;28;20091;-78
2022/10/12 10:50:33;;;;;;;16.33;6.93;;;;;;;;;;5019720;28;20026;-80
2022/10/12 10:53:03;;;;;;;24.08;7.32;;;;;;;;;;5002892;28;20112;-81
2022/10/12 10:55:49;;;;;;;31.17;8.27;;;;;;;;;;5022438;28;20036;-78
2022/10/12 10:58:35;;;;;;;19.52;7.22;;;;;;;;;;4995900;28;20055;-77
2022/10/12 11:01:24;;;;;;;28.48;8.13;;;;;;;;;;5013831;28;20022;-79
2022/10/12 11:04:08;;;;;;;27.60;6.85;;;;;;;;;;5012771;28;20091;-80
2022/10/12 11:06:54;;;;;;;12.50;6.10;;;;;;;;;;4996657;28;20034;-78
2022/10/12 11:09:29;;;;;;;14.68;6.32;;;;;;;;;;4998119;28;20038;-76
2022/10/12 11:12:03;;;;;;;15.23;6.22;;;;;;;;;;5013186;28;20835;-77
2022/10/12 11:14:43;;;;;;;17.30;6.45;;;;;;;;;;4995641;28;20034;-77
2022/10/12 11:17:27;;;;;;;13.73;4.78;;;;;;;;;;4998458;28;20030;-73
2022/10/12 11:20:18;;;;;;;11.95;5.05;;;;;;;;;;5000402;28;20523;-78
2022/10/12 11:22:54;;;;;;;17.13;6.13;;;;;;;;;;5000402;28;20041;-75
2022/10/12 11:25:28;;;;;;;17.10;5.82;;;;;;;;;;5010287;28;20045;-78
2022/10/12 11:27:58;;;;;;;18.83;6.65;;;;;;;;;;5012857;28;20045;-78
2022/10/12 11:30:29;;;;;;;13.48;5.53;;;;;;;;;;5019612;28;20029;-79
2022/10/12 11:33:14;;;;;;;17.60;6.32;;;;;;;;;;4999464;28;20025;-77
2022/10/12 11:35:43;;;;;;;16.42;7.00;;;;;;;;;;4998366;28;20494;-77
2022/10/12 11:38:24;;;;;;;13.48;6.53;;;;;;;;;;5017482;28;20035;-80
2022/10/12 11:41:16;;;;;;;17.25;7.43;;;;;;;;;;5001413;28;20038;-79
2022/10/12 11:44:00;;;;;;;11.43;5.82;;;;;;;;;;5016018;28;20112;-77
2022/10/12 11:46:41;;;;;;;20.95;8.75;;;;;;;;;;5018157;28;20029;-80
2022/10/12 11:49:18;;;;;;;17.92;7.97;;;;;;;;;;5001390;28;20156;-79
2022/10/12 11:51:47;;;;;;;15.90;7.70;;;;;;;;;;4995443;28;20053;-79
2022/10/12 11:54:39;;;;;;;23.63;8.88;;;;;;;;;;4998374;28;20524;-79
2022/10/12 11:57:12;;;;;;;15.88;8.05;;;;;;;;;;4992778;28;20506;-76
2022/10/12 11:59:43;;;;;;;19.63;8.82;;;;;;;;;;4996449;28;20500;-81
2022/10/12 12:02:41;;;;;;;26.10;8.57;;;;;;;;;;4994238;28;20124;-76
2022/10/12 12:05:15;;;;;;;18.05;8.07;;;;;;;;;;4983208;28;20033;-77
2022/10/12 12:07:45;;;;;;;17.20;7.50;;;;;;;;;;5012281;28;20507;-79
2022/10/12 12:10:51;;;;;;;21.50;8.07;;;;;;;;;;4999461;28;20025;-80
2022/10/12 12:13:23;;;;;;;24.50;8.02;;;;;;;;;;4937599;28;20190;-76
2022/10/12 12:15:48;;;;;;;20.80;8.05;;;;;;;;;;4951361;28;20524;-76
2022/10/12 12:18:53;;;;;;;20.80;8.07;;;;;;;;;;4969029;28;20044;-77
2022/10/12 12:21:18;;;;;;;19.17;7.25;;;;;;;;;;4991422;28;20060;-78
2022/10/12 12:23:52;;;;;;;22.10;8.90;;;;;;;;;;5010161;28;20465;-76
2022/10/12 12:26:26;;;;;;;15.57;8.00;;;;;;;;;;5010938;28;20033;-76
2022/10/12 12:29:10;;;;;;;19.30;7.95;;;;;;;;;;4977943;28;20049;-78
2022/10/12 12:31:36;;;;;;;25.30;8.63;;;;;;;;;;5018706;28;20116;-78
2022/10/12 12:34:12;;;;;;;18.60;8.00;;;;;;;;;;4993036;28;20045;-79
2022/10/12 12:36:43;;;;;;;13.82;8.23;;;;;;;;;;4995804;28;20036;-80
2022/10/12 12:39:32;;;;;;;21.88;7.65;;;;;;;;;;5015383;28;20031;-82
2022/10/12 12:42:02;;;;;;;16.40;7.32;;;;;;;;;;4996539;28;20112;-80
2022/10/12 12:44:41;;;;;;;;;;;;;;;;;;5011242;28;20041;-80
2022/10/12 12:47:09;;;;;;;21.15;7.70;;;;;;;;;;4990159;28;19917;-81
2022/10/12 12:49:59;;;;;;;16.92;7.53;;;;;;;;;;4994179;28;20156;-80
2022/10/12 12:52:38;;;;;;;12.43;6.72;;;;;;;;;;4997283;28;20045;-78
2022/10/12 12:55:22;;;;;;;16.98;9.65;;;;;;;;;;4992169;28;20061;-79
2022/10/12 12:58:18;;;;;;;16.45;6.55;;;;;;;;;;5010790;28;20047;-79
2022/10/12 13:01:25;;;;;;;19.02;8.68;;;;;;;;;;5013022;28;20037;-79
2022/10/12 13:04:06;;;;;;;20.48;8.75;;;;;;;;;;4947753;28;20042;-80
2022/10/12 13:06:59;;;;;;;17.27;7.82;;;;;;;;;;4996026;28;20029;-82
2022/10/12 13:09:33;;;;;;;13.15;6.32;;;;;;;;;;4989739;28;20034;-80
2022/10/12 13:12:16;;;;;;;14.55;5.82;;;;;;;;;;4993599;28;20130;-82
2022/10/12 13:15:11;;;;;;;14.20;5.78;;;;;;;;;;4994248;28;20666;-81
2022/10/12 13:17:39;;;;;;;17.10;5.97;;;;;;;;;;4997276;28;20033;-79
2022/10/12 13:20:16;;;;;;;17.38;5.80;;;;;;;;;;5013264;28;20052;-81
2022/10/12 13:22:44;;;;;;;12.30;5.68;;;;;;;;;;4987511;28;20172;-82
2022/10/12 13:25:18;;;;;;;15.45;5.88;;;;;;;;;;5015721;28;20045;-79
2022/10/12 13:27:49;;;;;;;10.98;6.35;;;;;;;;;;4993078;28;20034;-81
2022/10/12 13:30:40;;;;;;;12.00;5.82;;;;;;;;;;4991218;28;20025;-81
2022/10/12 13:33:13;;;;;;;17.85;6.88;;;;;;;;;;5008234;28;20030;-81
2022/10/12 13:35:47;;;;;;;13.57;6.38;;;;;;;;;;4994227;28;20652;-79
2022/10/12 13:38:24;;;;;;;16.90;7.07;;;;;;;;;;5001400;28;20033;-81
2022/10/12 13:41:07;;;;;;;18.58;7.18;;;;;;;;;;5011299;28;20486;-81
2022/10/12 13:43:39;;;;;;;23.48;9.60;;;;;;;;;;5001332;28;20053;-80
2022/10/12 13:46:04;;;;;;;;;;;;;;;;;;5022722;28;20025;-80
2022/10/12 13:48:30;;;;;;;22.38;7.05;;;;;;;;;;4999958;28;20663;-81
2022/10/12 13:51:01;;;;;;;20.30;7.38;;;;;;;;;;5010214;28;20050;-81
2022/10/12 13:53:36;;;;;;;24.60;7.78;;;;;;;;;;4997990;28;20113;-79
2022/10/12 13:56:11;;;;;;;14.35;7.55;;;;;;;;;;4995393;28;20449;-81
2022/10/12 13:58:39;;;;;;;13.50;7.20;;;;;;;;;;4995389;28;20124;-82
2022/10/12 14:01:04;;;;;;;19.35;8.05;;;;;;;;;;4983655;28;20052;-80
2022/10/12 14:03:39;;;;;;;22.95;8.35;;;;;;;;;;5000986;28;20017;-81
2022/10/12 14:06:05;;;;;;;12.95;6.85;;;;;;;;;;5014811;28;20069;-80
2022/10/12 14:08:33;;;;;;;17.55;8.55;;;;;;;;;;5025354;28;20047;-82
2022/10/12 14:11:01;;;;;;;15.07;7.35;;;;;;;;;;5018963;28;20672;-82
2022/10/12 14:13:32;;;;;;;25.48;8.48;;;;;;;;;;5008940;28;20036;-81
2022/10/12 14:16:00;;;;;;;21.77;8.32;;;;;;;;;;4996797;28;20119;-82
2022/10/12 14:18:36;;;;;;;21.60;7.28;;;;;;;;;;5013453;28;20084;-82
2022/10/12 14:21:17;;;;;;;20.17;7.95;;;;;;;;;;5010715;28;20061;-80
2022/10/12 14:23:50;;;;;;;18.23;8.10;;;;;;;;;;5009617;28;20383;-80
2022/10/12 14:26:23;;;;;;;17.05;7.43;;;;;;;;;;5014027;28;20095;-80
2022/10/12 14:28:49;;;;;;;15.88;8.52;;;;;;;;;;5026878;28;20017;-81
2022/10/12 14:31:15;;;;;;;15.10;7.53;;;;;;;;;;5035883;28;20370;-79
2022/10/12 14:33:43;;;;;;;24.15;8.13;;;;;;;;;;5010055;28;20053;-81
2022/10/12 14:36:21;;;;;;;13.00;6.53;;;;;;;;;;4993556;28;20113;-81
2022/10/12 14:38:49;;;;;;;23.17;8.93;;;;;;;;;;5001126;28;20036;-81
2022/10/12 14:41:31;;;;;;;15.10;8.10;;;;;;;;;;5030712;28;20145;-80
2022/10/12 14:44:11;;;;;;;24.40;9.75;;;;;;;;;;5011000;28;20033;-79
2022/10/12 14:46:50;;;;;;;16.45;7.07;;;;;;;;;;5011211;28;20036;-81
2022/10/12 14:49:23;;;;;;;22.35;7.80;;;;;;;;;;5024563;28;20128;-80
2022/10/12 14:51:50;;;;;;;18.40;6.57;;;;;;;;;;5015221;28;20076;-79
2022/10/12 14:54:16;;;;;;;21.10;6.97;;;;;;;;;;5014112;28;20029;-81